Fort Liard, Canada
Current Conditions -  °F | °C
As of 10:00 AM on Thursday 18 Dec 2014 (Local Time) from CYYE Reporting Station
Scattered Clouds Scattered Clouds  
Wind Chill: -23°   Ceiling: Unl
Heat Index: -23°   Visibility: 15mi
Dew Point: -25°   Wind: 0mph
Humidity: 84%   Direction: NA
Pressure: 29.79"   Gusts: NA
Location:  60.23°N, 123.48°W
Report Text: CYYE 181700Z 00000KT 15SM FEW140 SCT210 M23/M25 A2979 RMK AC2CI1 SLP130
Loading
Personal Weather Stations






























Interactive Weather Map New forecast layout! Learn more

10-Day Weather Forecast

Advertisements
Track Severe Weather on mobile